Time;durP1;ratioP1;P1;durP2;ratioP2;P2;SDS_P1;SDS_P2;PMS_P1;PMS_P2;Temp;Humidity;BMP_temperature;BMP_pressure;BME280_temperature;BME280_humidity;BME280_pressure;Samples;Min_cycle;Max_cycle;Signal;HPM_P1;HPM_P2
2023/11/06 00:01:23;;;;;;;4.10;1.10;;;;;;;19.14;65.95;98854.69;110027;1285;21900;-67
2023/11/06 00:03:50;;;;;;;3.50;1.10;;;;;;;19.11;65.87;98853.14;110025;1279;22263;-67
2023/11/06 00:06:16;;;;;;;3.50;0.70;;;;;;;19.08;65.89;98856.68;110006;1285;21939;-64
2023/11/06 00:08:42;;;;;;;4.70;0.70;;;;;;;19.08;65.99;98857.98;110010;1283;21931;-64
2023/11/06 00:11:08;;;;;;;1.90;0.50;;;;;;;19.07;66.02;98858.95;109991;1281;21918;-63
2023/11/06 00:13:34;;;;;;;2.80;0.70;;;;;;;18.98;66.18;98857.95;110017;1285;21939;-66
2023/11/06 00:15:59;;;;;;;2.80;0.80;;;;;;;18.94;66.42;98855.91;109961;1282;22341;-66
2023/11/06 00:18:25;;;;;;;3.10;0.90;;;;;;;18.91;66.53;98853.48;109956;1286;21951;-67
2023/11/06 00:20:51;;;;;;;6.10;0.40;;;;;;;18.86;66.48;98852.69;109973;1278;21948;-66
2023/11/06 00:23:16;;;;;;;1.80;0.70;;;;;;;18.84;66.49;98856.95;109981;1286;21946;-63
2023/11/06 00:25:42;;;;;;;1.80;0.60;;;;;;;18.82;66.53;98857.83;109959;1284;22097;-65
2023/11/06 00:28:07;;;;;;;2.90;0.90;;;;;;;18.79;66.58;98859.45;110021;1285;22379;-63
2023/11/06 00:30:33;;;;;;;2.30;0.50;;;;;;;18.76;66.57;98866.56;110018;1285;21934;-63
2023/11/06 00:33:01;;;;;;;1.50;0.70;;;;;;;18.73;66.64;98868.20;110017;1285;22006;-65
2023/11/06 00:35:27;;;;;;;3.80;0.80;;;;;;;18.71;66.61;98866.78;110009;1285;21945;-63
2023/11/06 00:37:52;;;;;;;2.50;0.60;;;;;;;18.67;66.69;98868.60;110014;1283;21930;-65
2023/11/06 00:40:18;;;;;;;3.70;0.80;;;;;;;18.65;66.70;98873.77;110013;1274;21947;-65
2023/11/06 00:42:44;;;;;;;2.60;0.80;;;;;;;18.63;66.66;98881.02;109987;1285;21865;-66
2023/11/06 00:45:09;;;;;;;3.10;0.90;;;;;;;18.61;66.81;98883.64;110018;1274;21934;-66
2023/11/06 00:47:35;;;;;;;3.90;0.80;;;;;;;18.57;66.83;98886.35;110009;1284;22015;-63
2023/11/06 00:50:00;;;;;;;2.20;0.80;;;;;;;18.54;66.57;98889.05;110035;1280;21914;-63
2023/11/06 00:52:26;;;;;;;3.30;0.70;;;;;;;18.51;66.49;98896.77;110011;1285;22367;-65
2023/11/06 00:54:51;;;;;;;2.50;0.90;;;;;;;18.47;66.55;98909.08;110026;1280;21917;-63
2023/11/06 00:57:17;;;;;;;2.70;0.80;;;;;;;18.42;66.74;98910.14;110012;1285;21927;-63
2023/11/06 00:59:43;;;;;;;5.10;0.60;;;;;;;18.38;66.68;98914.66;109265;1285;1002179;-63
2023/11/06 01:02:08;;;;;;;3.60;1.00;;;;;;;18.35;66.91;98914.83;110010;1285;22392;-66
2023/11/06 01:04:36;;;;;;;3.80;0.60;;;;;;;18.34;66.84;98913.34;110003;1285;21865;-66
2023/11/06 01:07:02;;;;;;;3.00;0.90;;;;;;;18.33;67.01;98908.05;109996;1285;22365;-66
2023/11/06 01:09:29;;;;;;;4.70;1.00;;;;;;;18.33;66.89;98898.70;110030;1285;21931;-63
2023/11/06 01:11:55;;;;;;;2.30;0.70;;;;;;;18.31;66.82;98899.38;110007;1285;21947;-65
2023/11/06 01:14:20;;;;;;;2.30;0.60;;;;;;;18.26;66.82;98906.92;110002;1285;21959;-63
2023/11/06 01:16:46;;;;;;;3.20;1.10;;;;;;;18.22;67.14;98912.55;109998;1279;21979;-63
2023/11/06 01:19:12;;;;;;;2.50;1.00;;;;;;;18.17;67.05;98912.86;110014;1284;21919;-63
2023/11/06 01:21:38;;;;;;;2.80;0.70;;;;;;;18.15;66.99;98922.23;110025;1285;21967;-63
2023/11/06 01:24:05;;;;;;;5.00;1.10;;;;;;;18.15;66.89;98925.27;110000;1285;22010;-66
2023/11/06 01:26:30;;;;;;;3.80;0.90;;;;;;;18.15;66.81;98925.62;109988;1285;21848;-66
2023/11/06 01:28:56;;;;;;;1.90;0.60;;;;;;;18.16;66.73;98929.98;110024;1285;21925;-63
2023/11/06 01:31:21;;;;;;;3.20;1.10;;;;;;;18.18;66.59;98931.10;109967;1285;21942;-63
2023/11/06 01:33:47;;;;;;;3.30;0.70;;;;;;;18.20;66.40;98933.64;110012;1285;21923;-66
2023/11/06 01:36:12;;;;;;;2.10;0.80;;;;;;;18.22;66.28;98941.13;110021;1283;21945;-65
2023/11/06 01:38:38;;;;;;;4.50;0.90;;;;;;;18.23;66.13;98946.17;110024;1285;21911;-65
2023/11/06 01:41:04;;;;;;;4.10;0.90;;;;;;;18.25;66.00;98952.82;109992;1285;21915;-65
2023/11/06 01:43:29;;;;;;;4.50;1.40;;;;;;;18.26;65.87;98962.16;110018;1279;21929;-63
2023/11/06 01:45:55;;;;;;;2.40;0.80;;;;;;;18.26;65.80;98962.19;110030;1274;21945;-63
2023/11/06 01:48:22;;;;;;;2.40;0.80;;;;;;;18.25;65.81;98961.50;110007;1285;21855;-63
2023/11/06 01:50:48;;;;;;;3.10;0.90;;;;;;;18.25;65.58;98962.23;110009;1285;21937;-66
2023/11/06 01:53:13;;;;;;;4.20;0.90;;;;;;;18.24;65.63;98957.30;110005;1285;22035;-63
2023/11/06 01:55:41;;;;;;;4.70;1.00;;;;;;;18.23;65.65;98962.16;110016;1285;21925;-64
2023/11/06 01:58:07;;;;;;;1.50;0.60;;;;;;;18.22;65.57;98963.64;109972;1285;21921;-64
2023/11/06 02:00:32;;;;;;;3.70;0.90;;;;;;;18.21;65.49;98969.20;109963;1285;22045;-65
2023/11/06 02:02:59;;;;;;;4.50;1.10;;;;;;;18.20;65.40;98976.73;109879;1285;21907;-65
2023/11/06 02:05:25;;;;;;;4.80;1.00;;;;;;;18.19;65.38;98982.70;110002;1285;21950;-63
2023/11/06 02:07:50;;;;;;;2.30;0.90;;;;;;;18.16;65.29;98986.59;109928;1285;21909;-63
2023/11/06 02:10:17;;;;;;;2.40;0.60;;;;;;;18.15;65.20;98988.60;109899;1285;21976;-63
2023/11/06 02:12:46;;;;;;;3.30;0.90;;;;;;;18.13;65.14;98994.95;110018;1285;21909;-63
2023/11/06 02:15:14;;;;;;;2.10;0.70;;;;;;;18.09;65.02;98998.94;110001;1283;22465;-64
2023/11/06 02:17:43;;;;;;;2.50;1.10;;;;;;;18.03;64.91;99000.23;110021;1285;21927;-63
2023/11/06 02:20:12;;;;;;;2.70;0.80;;;;;;;17.97;64.94;98998.08;109995;1285;22004;-66
2023/11/06 02:22:42;;;;;;;1.80;0.60;;;;;;;17.93;64.92;99005.64;110013;1285;21972;-65
2023/11/06 02:25:07;;;;;;;4.00;1.10;;;;;;;17.89;64.94;99008.56;110019;1285;21920;-65
2023/11/06 02:27:33;;;;;;;3.70;0.90;;;;;;;17.86;64.97;99010.73;110025;1285;21979;-66
2023/11/06 02:29:59;;;;;;;3.80;1.00;;;;;;;17.83;65.06;99011.23;110023;1285;21930;-63
2023/11/06 02:32:24;;;;;;;2.20;0.70;;;;;;;17.82;65.12;99011.48;109998;1280;21958;-66
2023/11/06 02:34:50;;;;;;;3.20;0.50;;;;;;;17.80;65.15;99019.23;109963;1285;21910;-64
2023/11/06 02:37:17;;;;;;;1.20;0.70;;;;;;;17.80;65.13;99026.13;110020;1285;21968;-63
2023/11/06 02:39:43;;;;;;;3.60;0.80;;;;;;;17.81;65.17;99026.98;110020;1279;21916;-64
2023/11/06 02:42:09;;;;;;;3.40;0.90;;;;;;;17.79;65.15;99024.80;110002;1285;21990;-64
2023/11/06 02:44:34;;;;;;;2.40;0.80;;;;;;;17.77;65.13;99022.80;110024;1276;22481;-64
2023/11/06 02:46:59;;;;;;;3.10;1.00;;;;;;;17.73;65.10;99023.04;109995;1285;21945;-63
2023/11/06 02:49:25;;;;;;;2.40;0.90;;;;;;;17.73;65.07;99022.55;110008;1285;22391;-65
2023/11/06 02:51:51;;;;;;;1.50;0.70;;;;;;;17.73;65.11;99025.34;110012;1280;22044;-64
2023/11/06 02:54:25;;;;;;;2.50;0.60;;;;;;;17.73;64.81;99029.29;110004;1285;21865;-63
2023/11/06 02:56:51;;;;;;;2.80;0.80;;;;;;;17.69;64.66;99028.95;110022;1274;21932;-65
2023/11/06 02:59:17;;;;;;;1.80;0.90;;;;;;;17.66;64.55;99029.31;110002;1280;21974;-65
2023/11/06 03:01:42;;;;;;;2.20;0.90;;;;;;;17.63;64.44;99036.45;109978;1286;21871;-65
2023/11/06 03:04:12;;;;;;;2.00;0.90;;;;;;;17.59;64.29;99039.74;110013;1279;21959;-65
2023/11/06 03:06:38;;;;;;;2.20;0.90;;;;;;;17.52;64.02;99045.81;110004;1276;21974;-65
2023/11/06 03:09:06;;;;;;;3.40;0.80;;;;;;;17.45;64.02;99050.02;110004;1285;21925;-64
2023/11/06 03:11:31;;;;;;;2.50;0.90;;;;;;;17.36;63.93;99057.30;110009;1285;22089;-64
2023/11/06 03:13:57;;;;;;;3.20;0.70;;;;;;;17.26;63.66;99063.70;110006;1285;21981;-63
2023/11/06 03:16:23;;;;;;;1.70;0.80;;;;;;;17.17;63.65;99071.89;109998;1280;21967;-63
2023/11/06 03:18:48;;;;;;;3.10;0.90;;;;;;;17.09;63.75;99072.89;110018;1285;21974;-65
2023/11/06 03:21:14;;;;;;;3.30;0.90;;;;;;;17.02;63.87;99077.92;110019;1285;21899;-65
2023/11/06 03:23:40;;;;;;;5.10;1.00;;;;;;;16.95;63.94;99084.66;110022;1280;21932;-63
2023/11/06 03:26:05;;;;;;;3.30;0.90;;;;;;;16.91;64.06;99090.94;109996;1279;21922;-63
2023/11/06 03:28:32;;;;;;;3.70;0.90;;;;;;;16.86;64.02;99089.61;110013;1285;21972;-65
2023/11/06 03:30:58;;;;;;;2.00;0.70;;;;;;;16.83;64.02;99093.33;110032;1273;21867;-65
2023/11/06 03:33:23;;;;;;;3.40;0.90;;;;;;;16.82;64.16;99096.44;110004;1285;21939;-63
2023/11/06 03:35:49;;;;;;;2.30;1.00;;;;;;;16.78;64.09;99099.11;110004;1285;22106;-65
2023/11/06 03:38:14;;;;;;;3.60;0.90;;;;;;;16.73;63.86;99106.30;110007;1285;21968;-64
2023/11/06 03:40:40;;;;;;;1.80;0.70;;;;;;;16.66;63.69;99113.98;110017;1281;21835;-63
2023/11/06 03:43:06;;;;;;;2.70;0.90;;;;;;;16.56;63.57;99120.91;110025;1275;21962;-65
2023/11/06 03:45:31;;;;;;;4.10;0.80;;;;;;;16.47;63.60;99126.05;109998;1285;21992;-65
2023/11/06 03:47:57;;;;;;;2.30;0.70;;;;;;;16.37;63.68;99132.59;110014;1283;21950;-63
2023/11/06 03:50:22;;;;;;;3.90;1.00;;;;;;;16.30;63.77;99140.64;110012;1285;21954;-63
2023/11/06 03:52:48;;;;;;;3.60;0.80;;;;;;;16.26;63.92;99148.77;110004;1282;22024;-65
2023/11/06 03:55:14;;;;;;;2.10;0.70;;;;;;;16.24;64.08;99148.73;110009;1283;21927;-65
2023/11/06 03:57:39;;;;;;;3.40;0.80;;;;;;;16.24;64.19;99150.36;110015;1276;21962;-65
2023/11/06 04:00:09;;;;;;;2.40;1.50;;;;;;;16.23;64.25;99149.01;110008;1283;21962;-65
2023/11/06 04:02:36;;;;;;;4.60;1.00;;;;;;;16.20;64.09;99151.95;109990;1284;22410;-65
2023/11/06 04:05:05;;;;;;;4.20;0.90;;;;;;;16.17;64.03;99156.02;106955;1285;1002208;-65
2023/11/06 04:07:31;;;;;;;2.60;0.60;;;;;;;16.14;64.04;99163.44;109996;1285;22001;-65
2023/11/06 04:09:56;;;;;;;2.70;1.00;;;;;;;16.10;63.98;99174.31;110006;1285;21974;-65
2023/11/06 04:12:22;;;;;;;3.60;1.00;;;;;;;16.05;63.98;99183.76;110012;1285;21945;-63
2023/11/06 04:14:49;;;;;;;3.50;1.00;;;;;;;16.00;63.86;99185.58;110001;1285;22001;-66
2023/11/06 04:17:15;;;;;;;3.50;0.80;;;;;;;15.98;63.97;99183.92;110004;1285;21932;-63
2023/11/06 04:19:41;;;;;;;3.10;0.60;;;;;;;15.96;63.93;99187.95;109998;1285;21917;-63
2023/11/06 04:22:07;;;;;;;1.50;0.70;;;;;;;15.93;63.93;99194.48;110007;1276;21978;-66
2023/11/06 04:24:33;;;;;;;2.30;1.10;;;;;;;15.89;63.84;99196.59;110019;1285;21953;-65
2023/11/06 04:26:59;;;;;;;1.80;0.70;;;;;;;15.88;63.96;99202.67;110029;1285;21931;-63
2023/11/06 04:29:25;;;;;;;1.50;0.80;;;;;;;15.88;64.05;99215.26;110009;1285;21990;-66
2023/11/06 04:31:50;;;;;;;1.90;0.70;;;;;;;15.88;64.05;99216.66;110009;1283;21857;-65
2023/11/06 04:34:17;;;;;;;1.70;0.80;;;;;;;15.89;64.11;99222.79;110033;1285;21964;-66
2023/11/06 04:36:42;;;;;;;4.50;1.10;;;;;;;15.89;63.95;99230.05;110030;1279;22012;-66
2023/11/06 04:39:09;;;;;;;4.50;1.10;;;;;;;15.88;63.87;99229.77;109251;1280;1002473;-62
2023/11/06 04:41:38;;;;;;;9.40;1.00;;;;;;;15.86;63.98;99233.55;109993;1285;21957;-66
2023/11/06 04:44:05;;;;;;;2.50;0.90;;;;;;;15.85;63.87;99235.05;109976;1285;21837;-63
2023/11/06 04:46:31;;;;;;;3.50;0.90;;;;;;;15.81;63.78;99242.30;110031;1283;21953;-67
2023/11/06 04:48:56;;;;;;;1.60;1.00;;;;;;;15.76;63.79;99243.94;110009;1285;21979;-65
2023/11/06 04:51:22;;;;;;;2.40;1.10;;;;;;;15.73;63.82;99249.78;110020;1276;21910;-62
2023/11/06 04:53:48;;;;;;;2.30;0.90;;;;;;;15.68;63.82;99253.21;110014;1284;21908;-62
2023/11/06 04:56:13;;;;;;;1.80;0.60;;;;;;;15.64;63.76;99256.60;110014;1285;21945;-62
2023/11/06 04:58:42;;;;;;;2.60;1.00;;;;;;;15.61;63.80;99256.41;110010;1278;21906;-62
2023/11/06 05:01:08;;;;;;;2.40;0.80;;;;;;;15.57;63.74;99262.95;109992;1276;21933;-65
2023/11/06 05:03:34;;;;;;;2.60;0.90;;;;;;;15.54;63.80;99275.47;110031;1278;21941;-62
2023/11/06 05:06:00;;;;;;;1.70;0.80;;;;;;;15.52;63.81;99283.54;110011;1274;22018;-62
2023/11/06 05:08:28;;;;;;;2.10;1.00;;;;;;;15.51;63.87;99288.91;110003;1273;21961;-66
2023/11/06 05:10:55;;;;;;;5.00;1.10;;;;;;;15.49;63.93;99295.52;110020;1285;21892;-66
2023/11/06 05:13:22;;;;;;;3.50;0.60;;;;;;;15.49;64.07;99299.08;110013;1285;21948;-62
2023/11/06 05:15:47;;;;;;;3.50;1.10;;;;;;;15.51;64.27;99298.65;110005;1285;21965;-63
2023/11/06 05:18:13;;;;;;;3.60;1.10;;;;;;;15.53;64.29;99299.77;109249;1279;1002056;-63
2023/11/06 05:20:41;;;;;;;2.00;0.70;;;;;;;15.57;64.40;99304.02;110028;1273;22013;-64
2023/11/06 05:23:11;;;;;;;3.40;1.20;;;;;;;15.60;64.35;99305.95;110029;1281;21926;-62
2023/11/06 05:25:37;;;;;;;2.20;0.60;;;;;;;15.64;64.45;99313.89;110013;1285;22009;-64
2023/11/06 05:28:03;;;;;;;2.50;0.60;;;;;;;15.69;64.58;99323.91;108487;1280;1002684;-65
2023/11/06 05:30:29;;;;;;;2.20;0.60;;;;;;;15.75;64.80;99332.60;110003;1283;21948;-63
2023/11/06 05:32:54;;;;;;;3.80;0.70;;;;;;;15.83;64.99;99337.73;109999;1275;21920;-65
2023/11/06 05:35:21;;;;;;;3.50;0.70;;;;;;;15.89;65.01;99348.91;110041;1276;21944;-64
2023/11/06 05:37:46;;;;;;;1.60;0.50;;;;;;;15.97;65.03;99352.97;109995;1285;21914;-63
2023/11/06 05:40:12;;;;;;;1.50;0.50;;;;;;;16.04;65.03;99356.46;110006;1277;21912;-64
2023/11/06 05:42:39;;;;;;;2.20;0.60;;;;;;;16.13;65.10;99363.46;110006;1285;21947;-64
2023/11/06 05:45:06;;;;;;;3.20;0.70;;;;;;;16.21;65.04;99362.90;109997;1285;21931;-65
2023/11/06 05:47:33;;;;;;;2.80;0.70;;;;;;;16.28;65.11;99369.05;110030;1285;22403;-64
2023/11/06 05:49:58;;;;;;;2.50;0.60;;;;;;;16.36;65.08;99379.95;109997;1276;21982;-64
2023/11/06 05:52:24;;;;;;;1.10;0.60;;;;;;;16.45;65.05;99386.44;110033;1285;21875;-64
2023/11/06 05:54:53;;;;;;;1.20;0.80;;;;;;;16.52;65.04;99389.45;110002;1276;21935;-65
2023/11/06 05:57:18;;;;;;;2.90;0.60;;;;;;;16.59;65.06;99388.50;109997;1284;21937;-65
2023/11/06 05:59:44;;;;;;;3.80;0.80;;;;;;;16.69;65.07;99392.05;109999;1285;22008;-64
2023/11/06 06:02:10;;;;;;;4.30;0.50;;;;;;;16.78;65.03;99399.17;110020;1273;21927;-66
2023/11/06 06:04:36;;;;;;;3.40;0.70;;;;;;;16.87;65.04;99404.92;109999;1276;21938;-64
2023/11/06 06:07:02;;;;;;;3.70;1.00;;;;;;;16.96;65.06;99408.92;110006;1279;21932;-66
2023/11/06 06:09:28;;;;;;;4.00;0.70;;;;;;;17.06;65.13;99414.94;110009;1277;21858;-66
2023/11/06 06:11:54;;;;;;;3.40;0.50;;;;;;;17.18;65.29;99423.13;109976;1284;21929;-66
2023/11/06 06:14:22;;;;;;;1.90;0.60;;;;;;;17.30;65.14;99429.42;110002;1285;21850;-63
2023/11/06 06:16:51;;;;;;;1.70;0.50;;;;;;;17.43;65.08;99437.90;110013;1273;21966;-66
2023/11/06 06:19:18;;;;;;;2.40;0.50;;;;;;;17.56;65.03;99439.85;110022;1285;21929;-64
2023/11/06 06:21:47;;;;;;;1.10;0.60;;;;;;;17.68;64.87;99436.65;110006;1285;21995;-63
2023/11/06 06:24:14;;;;;;;1.70;0.50;;;;;;;17.80;64.82;99437.23;110002;1279;21926;-67
2023/11/06 06:26:40;;;;;;;2.40;0.70;;;;;;;17.90;64.58;99439.48;110013;1280;21940;-63
2023/11/06 06:29:06;;;;;;;0.90;0.40;;;;;;;17.99;64.32;99439.38;110016;1285;21962;-63
2023/11/06 06:31:32;;;;;;;2.20;0.50;;;;;;;18.07;63.98;99445.13;110000;1285;21952;-67
2023/11/06 06:33:58;;;;;;;1.90;0.40;;;;;;;18.16;63.96;99450.31;110021;1280;21969;-63
2023/11/06 06:36:24;;;;;;;2.10;1.00;;;;;;;18.22;63.65;99459.16;110016;1272;21980;-62
2023/11/06 06:38:50;;;;;;;1.60;0.60;;;;;;;18.30;63.67;99463.15;110012;1285;21950;-67
2023/11/06 06:41:16;;;;;;;0.90;0.40;;;;;;;18.40;63.91;99468.80;110015;1285;21959;-63
2023/11/06 06:43:42;;;;;;;2.10;0.40;;;;;;;18.50;63.76;99471.55;110004;1285;21954;-68
2023/11/06 06:46:07;;;;;;;1.80;0.50;;;;;;;18.60;63.75;99471.51;110005;1285;21918;-69
2023/11/06 06:48:33;;;;;;;1.40;0.50;;;;;;;18.71;63.81;99473.32;109998;1285;21948;-63
2023/11/06 06:50:58;;;;;;;1.40;0.50;;;;;;;18.82;63.90;99478.33;109257;1285;1002324;-67
2023/11/06 06:53:24;;;;;;;3.90;0.50;;;;;;;18.95;63.57;99483.45;110020;1275;22390;-62
2023/11/06 06:55:50;;;;;;;2.70;0.80;;;;;;;19.06;63.02;99487.58;110011;1275;21934;-69
2023/11/06 06:58:16;;;;;;;2.00;0.50;;;;;;;19.15;62.18;99490.25;110024;1285;21946;-68
2023/11/06 07:00:43;;;;;;;1.60;0.70;;;;;;;19.23;62.15;99489.19;110017;1279;22453;-63
2023/11/06 07:03:09;;;;;;;1.90;0.50;;;;;;;19.37;61.54;99495.29;110016;1285;21905;-68
2023/11/06 07:05:35;;;;;;;0.80;0.50;;;;;;;19.43;61.02;99496.86;110000;1283;22020;-68
2023/11/06 07:08:01;;;;;;;1.20;0.40;;;;;;;19.50;60.08;99498.03;110018;1279;21969;-63
2023/11/06 07:10:27;;;;;;;1.00;0.50;;;;;;;19.58;60.43;99498.05;110007;1285;21860;-62
2023/11/06 07:12:52;;;;;;;1.90;0.30;;;;;;;19.68;59.91;99503.48;109999;1273;21968;-69
2023/11/06 07:15:18;;;;;;;1.70;0.40;;;;;;;19.82;59.69;99504.23;110006;1285;21951;-62
2023/11/06 07:17:44;;;;;;;2.00;0.50;;;;;;;19.93;59.94;99507.05;110002;1283;22006;-62
2023/11/06 07:20:15;;;;;;;2.40;0.60;;;;;;;20.00;59.92;99506.08;110013;1285;21942;-68
2023/11/06 07:22:41;;;;;;;2.20;0.40;;;;;;;20.10;60.13;99504.72;110004;1278;21934;-68
2023/11/06 07:25:08;;;;;;;1.20;0.50;;;;;;;20.21;59.43;99505.42;110011;1285;21933;-68
2023/11/06 07:27:34;;;;;;;0.90;0.40;;;;;;;20.31;59.41;99508.28;110022;1285;21939;-61
2023/11/06 07:30:02;;;;;;;1.40;0.70;;;;;;;20.45;59.03;99507.38;110021;1273;21883;-61
2023/11/06 07:32:28;;;;;;;2.70;0.80;;;;;;;20.59;58.21;99512.89;110007;1285;21918;-61
2023/11/06 07:34:53;;;;;;;1.70;0.60;;;;;;;20.66;58.28;99518.27;110010;1284;21926;-61
2023/11/06 07:37:19;;;;;;;1.20;0.40;;;;;;;20.77;57.94;99526.48;109982;1279;21948;-68
2023/11/06 07:39:44;;;;;;;3.10;0.60;;;;;;;20.86;57.82;99526.55;110013;1285;21977;-62
2023/11/06 07:42:13;;;;;;;1.70;0.70;;;;;;;21.00;58.72;99529.86;110009;1278;21954;-61
2023/11/06 07:44:39;;;;;;;1.90;0.60;;;;;;;21.17;58.37;99531.35;110024;1285;21942;-61
2023/11/06 07:47:06;;;;;;;2.10;0.80;;;;;;;21.33;57.44;99523.16;110003;1285;21964;-63
2023/11/06 07:49:32;;;;;;;1.20;0.40;;;;;;;21.46;57.00;99519.74;110018;1282;21870;-69
2023/11/06 07:52:00;;;;;;;2.00;0.60;;;;;;;21.58;57.81;99522.45;109998;1285;21972;-69
2023/11/06 07:54:25;;;;;;;1.00;0.40;;;;;;;21.74;56.95;99523.29;110029;1285;21875;-61
2023/11/06 07:56:52;;;;;;;0.90;0.30;;;;;;;21.83;55.22;99521.91;109991;1285;21878;-61
2023/11/06 07:59:17;;;;;;;1.00;0.30;;;;;;;21.91;54.86;99528.52;110023;1285;21940;-69
2023/11/06 08:01:43;;;;;;;2.70;0.50;;;;;;;21.94;51.94;99536.52;110006;1285;21943;-61
2023/11/06 08:04:08;;;;;;;1.30;0.40;;;;;;;22.06;53.26;99535.61;110001;1284;21942;-61
2023/11/06 08:06:34;;;;;;;0.90;0.30;;;;;;;22.18;52.91;99537.61;110002;1276;22416;-62
2023/11/06 08:09:00;;;;;;;1.50;0.50;;;;;;;22.27;52.57;99532.65;110013;1285;21971;-68
2023/11/06 08:11:26;;;;;;;2.60;1.10;;;;;;;22.37;53.06;99532.27;110018;1279;22016;-64
2023/11/06 08:13:52;;;;;;;24.50;15.70;;;;;;;22.46;53.01;99534.48;110015;1284;21937;-60
2023/11/06 08:16:17;;;;;;;3.30;1.90;;;;;;;22.55;51.88;99539.20;109987;1285;22010;-62
2023/11/06 08:18:44;;;;;;;2.50;1.30;;;;;;;22.60;50.62;99541.80;110019;1273;22299;-60
2023/11/06 08:21:10;;;;;;;2.60;1.20;;;;;;;22.79;52.22;99551.69;110013;1285;21951;-68
2023/11/06 08:23:36;;;;;;;3.10;0.90;;;;;;;22.93;51.77;99556.31;110014;1279;21937;-69
2023/11/06 08:26:04;;;;;;;2.40;0.50;;;;;;;23.07;51.77;99563.67;109988;1285;22004;-69
2023/11/06 08:28:30;;;;;;;1.20;0.40;;;;;;;23.16;48.88;99566.52;110015;1285;21943;-61
2023/11/06 08:30:56;;;;;;;2.40;0.70;;;;;;;23.28;49.81;99570.10;110023;1279;21911;-69
2023/11/06 08:33:22;;;;;;;2.60;0.90;;;;;;;23.40;49.24;99574.90;110021;1285;21872;-69
2023/11/06 08:35:47;;;;;;;2.80;1.10;;;;;;;23.51;48.90;99580.11;110028;1276;21970;-69
2023/11/06 08:38:13;;;;;;;3.00;1.40;;;;;;;23.57;48.30;99585.58;110008;1285;21925;-61
2023/11/06 08:40:39;;;;;;;7.60;2.90;;;;;;;23.62;47.96;99592.17;110020;1285;21920;-61
2023/11/06 08:43:05;;;;;;;15.60;4.00;;;;;;;23.67;48.00;99595.38;109991;1279;21862;-69
2023/11/06 08:45:32;;;;;;;8.60;2.10;;;;;;;23.72;48.23;99598.16;110007;1283;21924;-67
2023/11/06 08:47:58;;;;;;;23.30;7.60;;;;;;;23.79;47.65;99601.58;110006;1273;21887;-61
2023/11/06 08:50:23;;;;;;;10.70;3.00;;;;;;;23.87;47.76;99606.12;109998;1285;21927;-69
2023/11/06 08:52:49;;;;;;;8.40;3.40;;;;;;;23.91;46.92;99605.41;110015;1285;22012;-60
2023/11/06 08:55:15;;;;;;;3.40;1.30;;;;;;;23.96;47.09;99605.04;109998;1273;21931;-69
2023/11/06 08:57:40;;;;;;;1.80;0.60;;;;;;;24.02;46.95;99604.96;109973;1285;21972;-69
2023/11/06 09:00:09;;;;;;;6.90;2.90;;;;;;;24.10;47.62;99599.27;110015;1285;21918;-61
2023/11/06 09:02:35;;;;;;;10.70;4.40;;;;;;;24.19;46.79;99594.05;110015;1285;22439;-70
2023/11/06 09:05:02;;;;;;;4.80;1.80;;;;;;;24.29;47.48;99591.14;110024;1285;21990;-68
2023/11/06 09:07:28;;;;;;;2.40;0.60;;;;;;;24.43;47.29;99589.08;110011;1277;21962;-69
2023/11/06 09:09:54;;;;;;;3.70;1.20;;;;;;;24.54;47.16;99591.38;110021;1285;21940;-60
2023/11/06 09:12:19;;;;;;;3.70;1.10;;;;;;;24.61;46.95;99586.84;110002;1285;21943;-63
2023/11/06 09:14:45;;;;;;;54.90;5.30;;;;;;;24.67;45.92;99586.52;109987;1285;21861;-61
2023/11/06 09:17:11;;;;;;;21.40;2.50;;;;;;;24.77;46.66;99584.30;110017;1276;21942;-71
2023/11/06 09:19:36;;;;;;;60.80;5.00;;;;;;;24.88;46.88;99581.59;109985;1284;22004;-60
2023/11/06 09:22:03;;;;;;;49.30;3.70;;;;;;;25.03;46.19;99584.83;109997;1285;22413;-62
2023/11/06 09:24:29;;;;;;;9.40;1.00;;;;;;;25.17;46.25;99586.81;110000;1285;21963;-60
2023/11/06 09:26:56;;;;;;;13.50;1.50;;;;;;;25.32;45.95;99586.80;110008;1276;21938;-63
2023/11/06 09:29:22;;;;;;;6.00;1.20;;;;;;;25.43;44.96;99586.56;109998;1285;21973;-69
2023/11/06 09:31:48;;;;;;;18.00;2.80;;;;;;;25.48;44.68;99586.20;110011;1280;21908;-69
2023/11/06 09:34:14;;;;;;;2.00;0.30;;;;;;;25.51;44.07;99585.55;110025;1274;21928;-71
2023/11/06 09:36:39;;;;;;;4.60;0.40;;;;;;;25.55;44.04;99587.05;110017;1285;21903;-62
2023/11/06 09:39:09;;;;;;;1.20;0.40;;;;;;;25.60;43.94;99589.84;110015;1285;21966;-70
2023/11/06 09:42:15;;;;;;;1.00;0.40;;;;;;;25.65;43.72;99592.80;109582;1285;22031;-61
2023/11/06 09:44:46;;;;;;;2.00;0.40;;;;;;;25.75;43.97;99595.54;110000;1285;21947;-69
2023/11/06 09:47:12;;;;;;;1.80;0.30;;;;;;;25.88;42.92;99592.94;109992;1273;21997;-71
2023/11/06 09:49:50;;;;;;;1.30;0.50;;;;;;;25.92;41.21;99593.84;109937;1283;22015;-62
2023/11/06 09:52:18;;;;;;;1.70;0.20;;;;;;;25.89;41.86;99593.88;110019;1285;21976;-62
2023/11/06 09:54:46;;;;;;;2.80;0.30;;;;;;;25.91;42.08;99595.92;109998;1285;21957;-62
2023/11/06 09:57:12;;;;;;;0.40;0.20;;;;;;;25.93;41.06;99593.38;109997;1283;21958;-62
2023/11/06 09:59:40;;;;;;;2.00;0.30;;;;;;;25.95;40.13;99587.04;109965;1276;21998;-73
2023/11/06 10:02:05;;;;;;;3.90;0.60;;;;;;;25.97;39.49;99593.60;110008;1285;21959;-62
2023/11/06 10:04:32;;;;;;;1.30;0.30;;;;;;;26.01;39.27;99591.42;109995;1285;22268;-72
2023/11/06 10:06:58;;;;;;;4.10;0.70;;;;;;;26.01;39.38;99594.13;109963;1282;21954;-72
2023/11/06 10:09:25;;;;;;;0.60;0.20;;;;;;;26.01;38.95;99592.11;109995;1276;22014;-73
2023/11/06 10:11:58;;;;;;;2.30;0.30;;;;;;;26.03;39.48;99594.86;110019;1285;22420;-62
2023/11/06 10:14:37;;;;;;;1.60;0.40;;;;;;;26.07;39.39;99594.27;109963;1285;22175;-73
2023/11/06 10:17:03;;;;;;;1.10;0.30;;;;;;;26.12;39.86;99595.27;110007;1285;22002;-74
2023/11/06 10:19:29;;;;;;;2.30;0.50;;;;;;;26.19;39.35;99601.31;109966;1285;22439;-72
2023/11/06 10:21:55;;;;;;;1.60;0.40;;;;;;;26.26;39.65;99604.85;109963;1285;22008;-64
2023/11/06 10:24:21;;;;;;;1.40;0.40;;;;;;;26.31;39.07;99597.89;110017;1282;21999;-63
2023/11/06 10:26:46;;;;;;;1.30;0.40;;;;;;;26.35;38.36;99595.99;110009;1281;22022;-71
2023/11/06 10:29:13;;;;;;;0.70;0.30;;;;;;;26.38;38.41;99598.33;109874;1285;22006;-73
2023/11/06 10:31:44;;;;;;;1.00;0.40;;;;;;;26.39;38.36;99600.10;110019;1285;22003;-71
2023/11/06 10:34:32;;;;;;;1.30;0.40;;;;;;;26.41;38.09;99597.58;109993;1285;21993;-64
2023/11/06 10:37:07;;;;;;;0.30;0.20;;;;;;;26.45;38.23;99602.77;109976;1286;21928;-70
2023/11/06 10:39:32;;;;;;;0.70;0.30;;;;;;;26.45;37.30;99605.07;109987;1286;21926;-63
2023/11/06 10:42:02;;;;;;;3.20;0.60;;;;;;;26.46;38.10;99608.60;109983;1278;21929;-63
2023/11/06 10:44:36;;;;;;;1.90;0.40;;;;;;;26.52;38.10;99609.88;109936;1285;21977;-62
2023/11/06 10:47:10;;;;;;;0.70;0.20;;;;;;;26.60;37.85;99609.87;109977;1286;21966;-63
2023/11/06 10:49:40;;;;;;;2.10;0.30;;;;;;;26.72;38.21;99612.57;109887;1280;22022;-70
2023/11/06 10:52:07;;;;;;;0.60;0.20;;;;;;;26.78;37.17;99613.62;109977;1285;21956;-71
2023/11/06 10:54:33;;;;;;;2.80;0.30;;;;;;;26.76;37.37;99619.05;109998;1286;22005;-62
2023/11/06 10:56:59;;;;;;;1.40;0.30;;;;;;;26.78;37.53;99621.52;109965;1286;21924;-70
2023/11/06 10:59:25;;;;;;;0.80;0.30;;;;;;;26.80;37.59;99619.73;109965;1286;22028;-70
2023/11/06 11:01:54;;;;;;;1.60;0.30;;;;;;;26.83;37.61;99625.60;109964;1285;21965;-70
2023/11/06 11:04:21;;;;;;;1.90;0.40;;;;;;;26.82;37.41;99627.11;109976;1285;21878;-63
2023/11/06 11:06:47;;;;;;;2.50;0.50;;;;;;;26.85;37.58;99631.30;109968;1286;21910;-70
2023/11/06 11:09:15;;;;;;;0.90;0.40;;;;;;;26.89;37.05;99633.72;109870;1285;21935;-62
2023/11/06 11:11:41;;;;;;;0.80;0.30;;;;;;;26.81;35.74;99638.55;109894;1286;22040;-63
2023/11/06 11:14:13;;;;;;;0.80;0.30;;;;;;;26.66;36.04;99640.58;109958;1286;21948;-71
2023/11/06 11:16:40;;;;;;;2.10;0.40;;;;;;;26.62;36.44;99644.55;109947;1286;21957;-71
2023/11/06 11:19:22;;;;;;;0.80;0.30;;;;;;;26.62;36.86;99643.36;109996;1278;21958;-71
2023/11/06 11:22:04;;;;;;;1.20;0.30;;;;;;;26.57;36.20;99650.04;109966;1285;21855;-69